sensor_id;sensor_type;location;lat;lon;timestamp;P1;durP1;ratioP1;P2;durP2;ratioP2
73331;SDS011;61560;33.718;73.040;2023-02-15T00:01:35;26.00;;;9.77;;
73331;SDS011;61560;33.718;73.040;2023-02-15T00:04:02;24.10;;;10.85;;
73331;SDS011;61560;33.718;73.040;2023-02-15T00:06:30;26.58;;;9.65;;
73331;SDS011;61560;33.718;73.040;2023-02-15T00:08:56;18.77;;;9.25;;
73331;SDS011;61560;33.718;73.040;2023-02-15T00:11:24;20.08;;;8.57;;
73331;SDS011;61560;33.718;73.040;2023-02-15T00:14:07;20.92;;;9.50;;
73331;SDS011;61560;33.718;73.040;2023-02-15T00:16:34;17.20;;;8.30;;
73331;SDS011;61560;33.718;73.040;2023-02-15T00:19:02;21.95;;;8.55;;
73331;SDS011;61560;33.718;73.040;2023-02-15T00:21:29;24.33;;;9.27;;
73331;SDS011;61560;33.718;73.040;2023-02-15T00:23:58;21.60;;;8.77;;
73331;SDS011;61560;33.718;73.040;2023-02-15T00:26:25;17.17;;;9.55;;
73331;SDS011;61560;33.718;73.040;2023-02-15T00:28:53;18.58;;;9.93;;
73331;SDS011;61560;33.718;73.040;2023-02-15T00:31:20;25.05;;;9.25;;
73331;SDS011;61560;33.718;73.040;2023-02-15T00:33:47;24.02;;;9.73;;
73331;SDS011;61560;33.718;73.040;2023-02-15T00:36:14;21.35;;;9.52;;
73331;SDS011;61560;33.718;73.040;2023-02-15T00:38:40;20.58;;;9.73;;
73331;SDS011;61560;33.718;73.040;2023-02-15T00:41:07;31.02;;;10.75;;
73331;SDS011;61560;33.718;73.040;2023-02-15T00:43:35;25.05;;;10.85;;
73331;SDS011;61560;33.718;73.040;2023-02-15T00:46:02;25.58;;;9.32;;
73331;SDS011;61560;33.718;73.040;2023-02-15T00:48:31;28.80;;;11.52;;
73331;SDS011;61560;33.718;73.040;2023-02-15T00:50:59;20.30;;;9.55;;
73331;SDS011;61560;33.718;73.040;2023-02-15T00:53:27;19.88;;;9.18;;
73331;SDS011;61560;33.718;73.040;2023-02-15T00:55:54;16.40;;;7.72;;
73331;SDS011;61560;33.718;73.040;2023-02-15T00:58:22;25.60;;;10.80;;
73331;SDS011;61560;33.718;73.040;2023-02-15T01:00:48;24.50;;;9.95;;
73331;SDS011;61560;33.718;73.040;2023-02-15T01:03:16;20.80;;;10.30;;
73331;SDS011;61560;33.718;73.040;2023-02-15T01:05:43;24.75;;;9.32;;
73331;SDS011;61560;33.718;73.040;2023-02-15T01:08:10;21.42;;;9.73;;
73331;SDS011;61560;33.718;73.040;2023-02-15T01:10:37;17.17;;;8.65;;
73331;SDS011;61560;33.718;73.040;2023-02-15T01:13:04;18.42;;;9.07;;
73331;SDS011;61560;33.718;73.040;2023-02-15T01:15:34;14.70;;;6.75;;
73331;SDS011;61560;33.718;73.040;2023-02-15T01:18:01;22.13;;;8.05;;
73331;SDS011;61560;33.718;73.040;2023-02-15T01:20:28;18.65;;;7.43;;
73331;SDS011;61560;33.718;73.040;2023-02-15T01:22:56;16.45;;;7.13;;
73331;SDS011;61560;33.718;73.040;2023-02-15T01:25:23;23.33;;;8.50;;
73331;SDS011;61560;33.718;73.040;2023-02-15T01:27:50;16.67;;;7.35;;
73331;SDS011;61560;33.718;73.040;2023-02-15T01:30:17;20.40;;;8.07;;
73331;SDS011;61560;33.718;73.040;2023-02-15T01:32:44;18.25;;;8.55;;
73331;SDS011;61560;33.718;73.040;2023-02-15T01:35:11;21.42;;;8.32;;
73331;SDS011;61560;33.718;73.040;2023-02-15T01:37:37;22.17;;;7.70;;
73331;SDS011;61560;33.718;73.040;2023-02-15T01:40:05;21.17;;;8.93;;
73331;SDS011;61560;33.718;73.040;2023-02-15T01:42:35;17.65;;;7.85;;
73331;SDS011;61560;33.718;73.040;2023-02-15T01:45:03;20.50;;;8.25;;
73331;SDS011;61560;33.718;73.040;2023-02-15T01:47:39;20.48;;;8.75;;
73331;SDS011;61560;33.718;73.040;2023-02-15T01:50:12;20.17;;;8.43;;
73331;SDS011;61560;33.718;73.040;2023-02-15T01:52:57;29.25;;;9.10;;
73331;SDS011;61560;33.718;73.040;2023-02-15T01:55:39;22.08;;;9.40;;
73331;SDS011;61560;33.718;73.040;2023-02-15T01:58:14;20.58;;;9.25;;
73331;SDS011;61560;33.718;73.040;2023-02-15T02:00:41;21.05;;;9.85;;
73331;SDS011;61560;33.718;73.040;2023-02-15T02:03:08;25.95;;;11.15;;
73331;SDS011;61560;33.718;73.040;2023-02-15T02:05:35;27.83;;;10.52;;
73331;SDS011;61560;33.718;73.040;2023-02-15T02:08:03;28.15;;;10.95;;
73331;SDS011;61560;33.718;73.040;2023-02-15T02:10:30;29.92;;;9.45;;
73331;SDS011;61560;33.718;73.040;2023-02-15T02:13:01;23.70;;;9.70;;
73331;SDS011;61560;33.718;73.040;2023-02-15T02:15:44;27.27;;;10.45;;
73331;SDS011;61560;33.718;73.040;2023-02-15T02:34:05;26.80;;;9.85;;
73331;SDS011;61560;33.718;73.040;2023-02-15T02:36:27;22.52;;;10.27;;
73331;SDS011;61560;33.718;73.040;2023-02-15T02:44:26;32.55;;;11.95;;
73331;SDS011;61560;33.718;73.040;2023-02-15T02:49:38;31.58;;;11.57;;
73331;SDS011;61560;33.718;73.040;2023-02-15T02:52:31;38.33;;;12.90;;
73331;SDS011;61560;33.718;73.040;2023-02-15T02:55:21;36.95;;;13.75;;
73331;SDS011;61560;33.718;73.040;2023-02-15T02:58:09;40.88;;;15.23;;
73331;SDS011;61560;33.718;73.040;2023-02-15T03:01:03;44.05;;;14.55;;
73331;SDS011;61560;33.718;73.040;2023-02-15T03:03:41;52.65;;;16.58;;
73331;SDS011;61560;33.718;73.040;2023-02-15T03:06:14;46.08;;;15.80;;
73331;SDS011;61560;33.718;73.040;2023-02-15T03:08:46;39.80;;;17.65;;
73331;SDS011;61560;33.718;73.040;2023-02-15T03:11:16;53.33;;;18.92;;
73331;SDS011;61560;33.718;73.040;2023-02-15T03:13:43;51.88;;;17.95;;
73331;SDS011;61560;33.718;73.040;2023-02-15T03:16:12;46.38;;;18.05;;
73331;SDS011;61560;33.718;73.040;2023-02-15T03:19:12;52.55;;;19.83;;
73331;SDS011;61560;33.718;73.040;2023-02-15T03:21:53;55.72;;;21.70;;
73331;SDS011;61560;33.718;73.040;2023-02-15T03:24:35;49.17;;;21.65;;
73331;SDS011;61560;33.718;73.040;2023-02-15T03:27:48;51.10;;;21.23;;
73331;SDS011;61560;33.718;73.040;2023-02-15T03:30:21;47.03;;;20.13;;
73331;SDS011;61560;33.718;73.040;2023-02-15T03:32:48;59.88;;;22.00;;
73331;SDS011;61560;33.718;73.040;2023-02-15T03:35:18;59.17;;;21.17;;
73331;SDS011;61560;33.718;73.040;2023-02-15T03:37:55;46.78;;;20.48;;
73331;SDS011;61560;33.718;73.040;2023-02-15T03:40:28;53.00;;;22.35;;
73331;SDS011;61560;33.718;73.040;2023-02-15T03:46:11;63.28;;;23.58;;
73331;SDS011;61560;33.718;73.040;2023-02-15T03:49:40;54.85;;;20.02;;
73331;SDS011;61560;33.718;73.040;2023-02-15T03:51:51;52.22;;;21.17;;
73331;SDS011;61560;33.718;73.040;2023-02-15T03:54:23;56.90;;;22.25;;
73331;SDS011;61560;33.718;73.040;2023-02-15T04:00:09;62.30;;;23.38;;
73331;SDS011;61560;33.718;73.040;2023-02-15T04:03:12;63.70;;;24.92;;
73331;SDS011;61560;33.718;73.040;2023-02-15T04:05:42;65.78;;;26.45;;
73331;SDS011;61560;33.718;73.040;2023-02-15T04:08:10;61.50;;;25.40;;
73331;SDS011;61560;33.718;73.040;2023-02-15T04:10:37;54.72;;;24.17;;
73331;SDS011;61560;33.718;73.040;2023-02-15T04:13:24;56.67;;;23.85;;
73331;SDS011;61560;33.718;73.040;2023-02-15T04:15:58;69.85;;;28.15;;
73331;SDS011;61560;33.718;73.040;2023-02-15T04:21:18;66.30;;;26.90;;
73331;SDS011;61560;33.718;73.040;2023-02-15T04:24:04;67.40;;;30.20;;
73331;SDS011;61560;33.718;73.040;2023-02-15T04:26:49;71.78;;;31.38;;
73331;SDS011;61560;33.718;73.040;2023-02-15T04:29:19;65.43;;;30.55;;
73331;SDS011;61560;33.718;73.040;2023-02-15T04:31:47;78.35;;;34.58;;
73331;SDS011;61560;33.718;73.040;2023-02-15T04:34:15;68.47;;;34.15;;
73331;SDS011;61560;33.718;73.040;2023-02-15T04:36:42;79.78;;;37.13;;
73331;SDS011;61560;33.718;73.040;2023-02-15T04:39:09;78.15;;;39.65;;
73331;SDS011;61560;33.718;73.040;2023-02-15T04:41:39;79.00;;;40.33;;
73331;SDS011;61560;33.718;73.040;2023-02-15T04:44:07;87.75;;;42.58;;
73331;SDS011;61560;33.718;73.040;2023-02-15T04:46:35;82.95;;;42.13;;
73331;SDS011;61560;33.718;73.040;2023-02-15T04:49:01;82.97;;;44.33;;
73331;SDS011;61560;33.718;73.040;2023-02-15T04:51:28;86.00;;;43.75;;
73331;SDS011;61560;33.718;73.040;2023-02-15T04:53:55;86.30;;;45.08;;
73331;SDS011;61560;33.718;73.040;2023-02-15T04:56:22;74.40;;;42.80;;
73331;SDS011;61560;33.718;73.040;2023-02-15T04:58:49;94.20;;;45.80;;
73331;SDS011;61560;33.718;73.040;2023-02-15T05:01:15;87.68;;;45.20;;
73331;SDS011;61560;33.718;73.040;2023-02-15T05:03:42;77.43;;;42.85;;
73331;SDS011;61560;33.718;73.040;2023-02-15T05:06:09;84.07;;;42.78;;
73331;SDS011;61560;33.718;73.040;2023-02-15T05:08:35;71.43;;;38.60;;
73331;SDS011;61560;33.718;73.040;2023-02-15T05:11:03;90.97;;;41.90;;
73331;SDS011;61560;33.718;73.040;2023-02-15T05:13:29;75.13;;;42.42;;
73331;SDS011;61560;33.718;73.040;2023-02-15T05:15:56;74.13;;;41.03;;
73331;SDS011;61560;33.718;73.040;2023-02-15T05:18:22;82.95;;;39.20;;
73331;SDS011;61560;33.718;73.040;2023-02-15T05:20:49;74.55;;;40.25;;
73331;SDS011;61560;33.718;73.040;2023-02-15T05:23:16;68.18;;;36.40;;
73331;SDS011;61560;33.718;73.040;2023-02-15T05:25:46;63.40;;;34.58;;
73331;SDS011;61560;33.718;73.040;2023-02-15T05:28:46;64.32;;;31.38;;
73331;SDS011;61560;33.718;73.040;2023-02-15T05:31:19;54.53;;;29.90;;
73331;SDS011;61560;33.718;73.040;2023-02-15T05:33:45;53.00;;;29.02;;
73331;SDS011;61560;33.718;73.040;2023-02-15T05:36:12;51.03;;;26.48;;
73331;SDS011;61560;33.718;73.040;2023-02-15T05:38:40;55.65;;;28.10;;
73331;SDS011;61560;33.718;73.040;2023-02-15T05:41:07;49.58;;;26.70;;
73331;SDS011;61560;33.718;73.040;2023-02-15T05:43:35;43.67;;;25.55;;
73331;SDS011;61560;33.718;73.040;2023-02-15T05:46:02;45.20;;;24.42;;
73331;SDS011;61560;33.718;73.040;2023-02-15T05:48:31;49.92;;;24.67;;
73331;SDS011;61560;33.718;73.040;2023-02-15T05:53:51;59.50;;;25.67;;
73331;SDS011;61560;33.718;73.040;2023-02-15T05:56:17;43.47;;;22.13;;
73331;SDS011;61560;33.718;73.040;2023-02-15T05:58:44;40.72;;;22.92;;
73331;SDS011;61560;33.718;73.040;2023-02-15T06:01:15;53.28;;;24.42;;
73331;SDS011;61560;33.718;73.040;2023-02-15T06:03:43;44.95;;;21.58;;
73331;SDS011;61560;33.718;73.040;2023-02-15T06:06:10;49.70;;;23.25;;
73331;SDS011;61560;33.718;73.040;2023-02-15T06:08:37;52.30;;;21.92;;
73331;SDS011;61560;33.718;73.040;2023-02-15T06:11:04;44.22;;;21.65;;
73331;SDS011;61560;33.718;73.040;2023-02-15T06:13:31;41.35;;;20.90;;
73331;SDS011;61560;33.718;73.040;2023-02-15T06:15:59;51.88;;;22.73;;
73331;SDS011;61560;33.718;73.040;2023-02-15T06:18:25;59.63;;;26.98;;
73331;SDS011;61560;33.718;73.040;2023-02-15T06:20:52;64.43;;;28.33;;
73331;SDS011;61560;33.718;73.040;2023-02-15T06:23:19;65.68;;;27.77;;
73331;SDS011;61560;33.718;73.040;2023-02-15T06:25:46;70.28;;;28.27;;
73331;SDS011;61560;33.718;73.040;2023-02-15T06:28:13;55.53;;;29.15;;
73331;SDS011;61560;33.718;73.040;2023-02-15T06:30:39;57.40;;;28.48;;
73331;SDS011;61560;33.718;73.040;2023-02-15T06:33:07;63.78;;;29.80;;
73331;SDS011;61560;33.718;73.040;2023-02-15T06:35:33;56.42;;;27.55;;
73331;SDS011;61560;33.718;73.040;2023-02-15T06:38:00;54.97;;;27.02;;
73331;SDS011;61560;33.718;73.040;2023-02-15T06:40:26;59.67;;;28.95;;
73331;SDS011;61560;33.718;73.040;2023-02-15T06:42:53;62.92;;;27.65;;
73331;SDS011;61560;33.718;73.040;2023-02-15T06:45:19;65.47;;;27.83;;
73331;SDS011;61560;33.718;73.040;2023-02-15T06:47:46;56.67;;;28.98;;
73331;SDS011;61560;33.718;73.040;2023-02-15T06:50:13;59.55;;;27.58;;
73331;SDS011;61560;33.718;73.040;2023-02-15T06:52:39;65.88;;;30.38;;
73331;SDS011;61560;33.718;73.040;2023-02-15T06:55:06;68.70;;;30.63;;
73331;SDS011;61560;33.718;73.040;2023-02-15T06:57:34;69.82;;;32.88;;
73331;SDS011;61560;33.718;73.040;2023-02-15T07:00:02;70.57;;;31.48;;
73331;SDS011;61560;33.718;73.040;2023-02-15T07:02:30;77.68;;;33.08;;
73331;SDS011;61560;33.718;73.040;2023-02-15T07:04:57;74.22;;;31.90;;
73331;SDS011;61560;33.718;73.040;2023-02-15T07:07:25;59.17;;;29.85;;
73331;SDS011;61560;33.718;73.040;2023-02-15T07:09:51;55.22;;;25.13;;
73331;SDS011;61560;33.718;73.040;2023-02-15T07:12:18;60.40;;;27.10;;
73331;SDS011;61560;33.718;73.040;2023-02-15T07:15:03;51.00;;;24.33;;
73331;SDS011;61560;33.718;73.040;2023-02-15T07:17:32;53.63;;;23.75;;
73331;SDS011;61560;33.718;73.040;2023-02-15T07:20:01;39.90;;;18.38;;
73331;SDS011;61560;33.718;73.040;2023-02-15T07:22:33;33.95;;;14.65;;
73331;SDS011;61560;33.718;73.040;2023-02-15T07:25:02;19.10;;;10.80;;
73331;SDS011;61560;33.718;73.040;2023-02-15T07:27:30;26.65;;;11.85;;
73331;SDS011;61560;33.718;73.040;2023-02-15T07:29:57;28.70;;;12.35;;
73331;SDS011;61560;33.718;73.040;2023-02-15T07:32:26;17.30;;;9.52;;
73331;SDS011;61560;33.718;73.040;2023-02-15T07:34:56;22.77;;;9.43;;
73331;SDS011;61560;33.718;73.040;2023-02-15T07:37:23;18.80;;;8.38;;
73331;SDS011;61560;33.718;73.040;2023-02-15T07:39:51;16.08;;;7.97;;
73331;SDS011;61560;33.718;73.040;2023-02-15T07:42:17;13.55;;;6.82;;
73331;SDS011;61560;33.718;73.040;2023-02-15T07:44:46;14.65;;;7.45;;
73331;SDS011;61560;33.718;73.040;2023-02-15T07:47:12;11.20;;;5.93;;
73331;SDS011;61560;33.718;73.040;2023-02-15T07:49:40;15.90;;;6.38;;
73331;SDS011;61560;33.718;73.040;2023-02-15T07:52:06;13.55;;;7.05;;
73331;SDS011;61560;33.718;73.040;2023-02-15T07:54:33;16.15;;;7.97;;
73331;SDS011;61560;33.718;73.040;2023-02-15T07:57:00;9.07;;;5.90;;
73331;SDS011;61560;33.718;73.040;2023-02-15T07:59:27;10.43;;;5.53;;
73331;SDS011;61560;33.718;73.040;2023-02-15T08:13:31;15.27;;;5.95;;
73331;SDS011;61560;33.718;73.040;2023-02-15T08:16:00;13.07;;;6.38;;
73331;SDS011;61560;33.718;73.040;2023-02-15T08:18:26;11.38;;;5.65;;
73331;SDS011;61560;33.718;73.040;2023-02-15T08:20:53;17.15;;;6.50;;
73331;SDS011;61560;33.718;73.040;2023-02-15T08:23:20;15.38;;;6.47;;
73331;SDS011;61560;33.718;73.040;2023-02-15T08:25:46;18.67;;;6.80;;
73331;SDS011;61560;33.718;73.040;2023-02-15T08:28:13;12.80;;;5.85;;
73331;SDS011;61560;33.718;73.040;2023-02-15T08:30:40;12.35;;;6.53;;
73331;SDS011;61560;33.718;73.040;2023-02-15T08:33:07;12.45;;;6.30;;
73331;SDS011;61560;33.718;73.040;2023-02-15T08:35:35;11.20;;;5.80;;
73331;SDS011;61560;33.718;73.040;2023-02-15T08:38:02;10.05;;;5.75;;
73331;SDS011;61560;33.718;73.040;2023-02-15T08:40:32;12.68;;;5.88;;
73331;SDS011;61560;33.718;73.040;2023-02-15T08:43:03;13.82;;;6.50;;
73331;SDS011;61560;33.718;73.040;2023-02-15T08:45:30;14.18;;;6.68;;
73331;SDS011;61560;33.718;73.040;2023-02-15T08:47:56;11.68;;;6.03;;
73331;SDS011;61560;33.718;73.040;2023-02-15T08:50:23;11.75;;;5.70;;
73331;SDS011;61560;33.718;73.040;2023-02-15T08:52:52;10.90;;;5.78;;
73331;SDS011;61560;33.718;73.040;2023-02-15T08:55:18;13.75;;;6.25;;
73331;SDS011;61560;33.718;73.040;2023-02-15T08:57:45;10.80;;;5.55;;
73331;SDS011;61560;33.718;73.040;2023-02-15T09:00:13;12.38;;;6.57;;
73331;SDS011;61560;33.718;73.040;2023-02-15T09:02:40;10.57;;;5.45;;
73331;SDS011;61560;33.718;73.040;2023-02-15T09:05:07;14.73;;;6.10;;
73331;SDS011;61560;33.718;73.040;2023-02-15T09:07:34;13.35;;;6.45;;
73331;SDS011;61560;33.718;73.040;2023-02-15T09:10:00;10.40;;;5.82;;
73331;SDS011;61560;33.718;73.040;2023-02-15T09:12:27;10.75;;;6.18;;
73331;SDS011;61560;33.718;73.040;2023-02-15T09:14:54;12.32;;;6.60;;
73331;SDS011;61560;33.718;73.040;2023-02-15T09:17:22;14.02;;;6.60;;
73331;SDS011;61560;33.718;73.040;2023-02-15T09:19:48;15.23;;;6.45;;
73331;SDS011;61560;33.718;73.040;2023-02-15T09:22:15;12.13;;;6.40;;
73331;SDS011;61560;33.718;73.040;2023-02-15T09:24:42;15.15;;;6.45;;
73331;SDS011;61560;33.718;73.040;2023-02-15T09:27:09;14.90;;;6.60;;
73331;SDS011;61560;33.718;73.040;2023-02-15T09:29:36;15.05;;;7.00;;
73331;SDS011;61560;33.718;73.040;2023-02-15T09:35:15;12.60;;;6.80;;
73331;SDS011;61560;33.718;73.040;2023-02-15T09:37:42;13.50;;;5.55;;
73331;SDS011;61560;33.718;73.040;2023-02-15T09:40:10;10.85;;;5.82;;
73331;SDS011;61560;33.718;73.040;2023-02-15T09:48:52;10.00;;;5.07;;
73331;SDS011;61560;33.718;73.040;2023-02-15T09:56:31;14.73;;;5.45;;
73331;SDS011;61560;33.718;73.040;2023-02-15T10:16:54;9.25;;;4.25;;
73331;SDS011;61560;33.718;73.040;2023-02-15T10:28:04;7.57;;;4.18;;
73331;SDS011;61560;33.718;73.040;2023-02-15T10:30:36;6.75;;;3.65;;
73331;SDS011;61560;33.718;73.040;2023-02-15T10:33:14;7.53;;;3.92;;
73331;SDS011;61560;33.718;73.040;2023-02-15T10:38:40;7.45;;;4.05;;
73331;SDS011;61560;33.718;73.040;2023-02-15T10:43:49;5.40;;;3.58;;
73331;SDS011;61560;33.718;73.040;2023-02-15T10:46:39;10.05;;;4.13;;
73331;SDS011;61560;33.718;73.040;2023-02-15T10:58:03;6.57;;;4.35;;
73331;SDS011;61560;33.718;73.040;2023-02-15T11:00:45;11.00;;;4.78;;
73331;SDS011;61560;33.718;73.040;2023-02-15T11:06:19;9.07;;;4.65;;
73331;SDS011;61560;33.718;73.040;2023-02-15T11:09:02;9.05;;;4.65;;
73331;SDS011;61560;33.718;73.040;2023-02-15T11:11:41;12.55;;;4.78;;
73331;SDS011;61560;33.718;73.040;2023-02-15T11:16:50;9.20;;;4.57;;
73331;SDS011;61560;33.718;73.040;2023-02-15T11:19:23;11.25;;;5.25;;
73331;SDS011;61560;33.718;73.040;2023-02-15T11:21:59;14.57;;;4.63;;
73331;SDS011;61560;33.718;73.040;2023-02-15T11:24:30;8.85;;;5.00;;
73331;SDS011;61560;33.718;73.040;2023-02-15T11:27:15;7.90;;;4.50;;
73331;SDS011;61560;33.718;73.040;2023-02-15T11:29:52;8.73;;;4.78;;
73331;SDS011;61560;33.718;73.040;2023-02-15T11:35:10;11.20;;;5.07;;
73331;SDS011;61560;33.718;73.040;2023-02-15T11:40:35;8.63;;;4.38;;
73331;SDS011;61560;33.718;73.040;2023-02-15T11:43:17;10.82;;;4.82;;
73331;SDS011;61560;33.718;73.040;2023-02-15T11:45:46;10.68;;;4.20;;
73331;SDS011;61560;33.718;73.040;2023-02-15T11:48:13;9.70;;;4.60;;
73331;SDS011;61560;33.718;73.040;2023-02-15T11:50:41;9.00;;;4.25;;
73331;SDS011;61560;33.718;73.040;2023-02-15T11:53:11;10.40;;;5.00;;
73331;SDS011;61560;33.718;73.040;2023-02-15T11:55:44;8.95;;;4.80;;
73331;SDS011;61560;33.718;73.040;2023-02-15T12:00:56;10.68;;;4.30;;
73331;SDS011;61560;33.718;73.040;2023-02-15T12:03:50;10.73;;;5.10;;
73331;SDS011;61560;33.718;73.040;2023-02-15T12:06:25;9.77;;;4.40;;
73331;SDS011;61560;33.718;73.040;2023-02-15T12:11:30;9.40;;;5.85;;
73331;SDS011;61560;33.718;73.040;2023-02-15T12:14:06;8.23;;;4.68;;
73331;SDS011;61560;33.718;73.040;2023-02-15T12:16:42;9.48;;;5.07;;
73331;SDS011;61560;33.718;73.040;2023-02-15T12:19:13;11.50;;;4.60;;
73331;SDS011;61560;33.718;73.040;2023-02-15T12:21:49;12.70;;;4.65;;
73331;SDS011;61560;33.718;73.040;2023-02-15T12:27:13;9.23;;;4.68;;
73331;SDS011;61560;33.718;73.040;2023-02-15T12:32:30;6.95;;;3.63;;
73331;SDS011;61560;33.718;73.040;2023-02-15T12:35:01;6.50;;;3.80;;
73331;SDS011;61560;33.718;73.040;2023-02-15T12:37:34;9.77;;;4.38;;
73331;SDS011;61560;33.718;73.040;2023-02-15T12:40:23;10.70;;;3.63;;
73331;SDS011;61560;33.718;73.040;2023-02-15T12:42:54;10.63;;;4.45;;
73331;SDS011;61560;33.718;73.040;2023-02-15T12:45:25;8.60;;;3.80;;
73331;SDS011;61560;33.718;73.040;2023-02-15T12:50:51;10.05;;;4.35;;
73331;SDS011;61560;33.718;73.040;2023-02-15T12:53:22;8.75;;;4.78;;
73331;SDS011;61560;33.718;73.040;2023-02-15T12:55:50;14.15;;;5.05;;
73331;SDS011;61560;33.718;73.040;2023-02-15T12:58:32;8.48;;;4.47;;
73331;SDS011;61560;33.718;73.040;2023-02-15T14:07:15;12.23;;;5.57;;
73331;SDS011;61560;33.718;73.040;2023-02-15T14:15:44;12.48;;;6.20;;
73331;SDS011;61560;33.718;73.040;2023-02-15T14:18:33;9.48;;;5.05;;
73331;SDS011;61560;33.718;73.040;2023-02-15T14:21:13;9.50;;;4.88;;
73331;SDS011;61560;33.718;73.040;2023-02-15T14:23:52;9.55;;;5.03;;
73331;SDS011;61560;33.718;73.040;2023-02-15T14:26:45;11.18;;;4.82;;
73331;SDS011;61560;33.718;73.040;2023-02-15T14:32:10;12.95;;;4.85;;
73331;SDS011;61560;33.718;73.040;2023-02-15T14:34:52;10.13;;;4.85;;
73331;SDS011;61560;33.718;73.040;2023-02-15T14:37:42;11.07;;;4.72;;
73331;SDS011;61560;33.718;73.040;2023-02-15T14:40:42;14.93;;;5.20;;
73331;SDS011;61560;33.718;73.040;2023-02-15T14:46:03;10.05;;;4.85;;
73331;SDS011;61560;33.718;73.040;2023-02-15T14:49:21;13.52;;;6.30;;
73331;SDS011;61560;33.718;73.040;2023-02-15T14:57:33;17.98;;;7.97;;
73331;SDS011;61560;33.718;73.040;2023-02-15T14:59:57;13.52;;;6.97;;
73331;SDS011;61560;33.718;73.040;2023-02-15T15:07:35;18.85;;;7.47;;
73331;SDS011;61560;33.718;73.040;2023-02-15T15:12:44;11.85;;;6.47;;
73331;SDS011;61560;33.718;73.040;2023-02-15T15:36:47;27.08;;;10.95;;
73331;SDS011;61560;33.718;73.040;2023-02-15T15:50:19;32.08;;;12.27;;
73331;SDS011;61560;33.718;73.040;2023-02-15T15:52:47;28.20;;;13.07;;
73331;SDS011;61560;33.718;73.040;2023-02-15T15:55:23;35.60;;;13.73;;
73331;SDS011;61560;33.718;73.040;2023-02-15T15:58:04;36.83;;;14.18;;
73331;SDS011;61560;33.718;73.040;2023-02-15T16:00:55;33.97;;;14.70;;
73331;SDS011;61560;33.718;73.040;2023-02-15T16:03:26;33.00;;;15.02;;
73331;SDS011;61560;33.718;73.040;2023-02-15T16:05:55;30.48;;;15.13;;
73331;SDS011;61560;33.718;73.040;2023-02-15T16:11:00;34.38;;;15.40;;
73331;SDS011;61560;33.718;73.040;2023-02-15T16:13:39;38.78;;;15.63;;
73331;SDS011;61560;33.718;73.040;2023-02-15T16:16:11;29.55;;;13.65;;
73331;SDS011;61560;33.718;73.040;2023-02-15T16:18:40;29.00;;;12.65;;
73331;SDS011;61560;33.718;73.040;2023-02-15T16:21:17;34.20;;;13.40;;
73331;SDS011;61560;33.718;73.040;2023-02-15T16:29:17;33.42;;;13.05;;
73331;SDS011;61560;33.718;73.040;2023-02-15T16:34:59;35.72;;;13.15;;
73331;SDS011;61560;33.718;73.040;2023-02-15T16:37:34;40.42;;;13.30;;
73331;SDS011;61560;33.718;73.040;2023-02-15T16:40:45;33.92;;;12.57;;
73331;SDS011;61560;33.718;73.040;2023-02-15T16:43:13;27.73;;;12.30;;
73331;SDS011;61560;33.718;73.040;2023-02-15T16:45:42;27.58;;;11.73;;
73331;SDS011;61560;33.718;73.040;2023-02-15T16:48:14;30.58;;;11.90;;
73331;SDS011;61560;33.718;73.040;2023-02-15T16:50:49;32.15;;;13.07;;
73331;SDS011;61560;33.718;73.040;2023-02-15T16:53:28;31.15;;;12.18;;
73331;SDS011;61560;33.718;73.040;2023-02-15T16:55:57;38.45;;;13.35;;
73331;SDS011;61560;33.718;73.040;2023-02-15T16:58:36;35.13;;;13.85;;
73331;SDS011;61560;33.718;73.040;2023-02-15T17:01:08;30.83;;;11.95;;
73331;SDS011;61560;33.718;73.040;2023-02-15T17:03:40;28.05;;;11.77;;
73331;SDS011;61560;33.718;73.040;2023-02-15T17:06:19;29.10;;;11.88;;
73331;SDS011;61560;33.718;73.040;2023-02-15T17:09:05;21.90;;;11.05;;
73331;SDS011;61560;33.718;73.040;2023-02-15T17:11:41;28.20;;;11.95;;
73331;SDS011;61560;33.718;73.040;2023-02-15T17:19:08;24.65;;;11.25;;
73331;SDS011;61560;33.718;73.040;2023-02-15T17:21:52;24.58;;;9.63;;
73331;SDS011;61560;33.718;73.040;2023-02-15T17:24:33;24.02;;;11.63;;
73331;SDS011;61560;33.718;73.040;2023-02-15T17:27:05;31.90;;;11.73;;
73331;SDS011;61560;33.718;73.040;2023-02-15T17:32:55;26.88;;;10.48;;
73331;SDS011;61560;33.718;73.040;2023-02-15T17:35:28;26.83;;;11.05;;
73331;SDS011;61560;33.718;73.040;2023-02-15T17:38:02;23.58;;;11.05;;
73331;SDS011;61560;33.718;73.040;2023-02-15T17:40:42;21.77;;;10.00;;
73331;SDS011;61560;33.718;73.040;2023-02-15T17:43:09;27.58;;;10.68;;
73331;SDS011;61560;33.718;73.040;2023-02-15T17:45:40;21.63;;;9.15;;
73331;SDS011;61560;33.718;73.040;2023-02-15T17:48:17;22.75;;;9.07;;
73331;SDS011;61560;33.718;73.040;2023-02-15T17:51:01;22.25;;;8.35;;
73331;SDS011;61560;33.718;73.040;2023-02-15T17:53:32;45.60;;;9.73;;
73331;SDS011;61560;33.718;73.040;2023-02-15T17:55:59;22.23;;;7.88;;
73331;SDS011;61560;33.718;73.040;2023-02-15T17:58:35;18.50;;;7.75;;
73331;SDS011;61560;33.718;73.040;2023-02-15T18:01:06;19.02;;;7.72;;
73331;SDS011;61560;33.718;73.040;2023-02-15T18:04:00;14.80;;;6.50;;
73331;SDS011;61560;33.718;73.040;2023-02-15T18:06:46;20.35;;;7.30;;
73331;SDS011;61560;33.718;73.040;2023-02-15T18:09:34;12.48;;;6.15;;
73331;SDS011;61560;33.718;73.040;2023-02-15T18:14:45;13.77;;;6.53;;
73331;SDS011;61560;33.718;73.040;2023-02-15T18:17:15;13.77;;;6.18;;
73331;SDS011;61560;33.718;73.040;2023-02-15T18:19:44;14.43;;;6.80;;
73331;SDS011;61560;33.718;73.040;2023-02-15T18:22:15;13.43;;;6.18;;
73331;SDS011;61560;33.718;73.040;2023-02-15T18:24:48;14.65;;;6.93;;
73331;SDS011;61560;33.718;73.040;2023-02-15T18:27:14;16.70;;;7.05;;
73331;SDS011;61560;33.718;73.040;2023-02-15T18:29:42;17.30;;;7.28;;
73331;SDS011;61560;33.718;73.040;2023-02-15T18:32:14;17.25;;;6.85;;
73331;SDS011;61560;33.718;73.040;2023-02-15T18:34:44;13.50;;;5.97;;
73331;SDS011;61560;33.718;73.040;2023-02-15T18:37:14;12.07;;;5.78;;
73331;SDS011;61560;33.718;73.040;2023-02-15T18:39:45;15.95;;;6.00;;
73331;SDS011;61560;33.718;73.040;2023-02-15T18:44:48;18.33;;;6.37;;
73331;SDS011;61560;33.718;73.040;2023-02-15T18:47:15;12.73;;;5.35;;
73331;SDS011;61560;33.718;73.040;2023-02-15T18:49:42;17.90;;;6.25;;
73331;SDS011;61560;33.718;73.040;2023-02-15T18:52:15;14.88;;;5.55;;
73331;SDS011;61560;33.718;73.040;2023-02-15T18:54:44;12.68;;;5.78;;
73331;SDS011;61560;33.718;73.040;2023-02-15T18:57:12;15.93;;;6.82;;
73331;SDS011;61560;33.718;73.040;2023-02-15T18:59:40;19.98;;;6.75;;
73331;SDS011;61560;33.718;73.040;2023-02-15T19:02:14;16.95;;;6.10;;
73331;SDS011;61560;33.718;73.040;2023-02-15T19:04:43;17.38;;;5.82;;
73331;SDS011;61560;33.718;73.040;2023-02-15T19:07:24;16.73;;;6.25;;
73331;SDS011;61560;33.718;73.040;2023-02-15T19:09:55;16.70;;;6.78;;
73331;SDS011;61560;33.718;73.040;2023-02-15T19:12:24;15.50;;;6.20;;
73331;SDS011;61560;33.718;73.040;2023-02-15T19:14:52;19.00;;;7.43;;
73331;SDS011;61560;33.718;73.040;2023-02-15T19:17:21;17.50;;;6.80;;
73331;SDS011;61560;33.718;73.040;2023-02-15T19:19:49;18.77;;;7.13;;